createdAt,value
2023-02-27T00:01:17.245Z,3.25
2023-02-27T00:04:59.192Z,2.90
2023-02-27T00:08:41.186Z,2.13
2023-02-27T00:12:23.188Z,2.13
2023-02-27T00:16:05.768Z,1.80
2023-02-27T00:19:47.739Z,1.90
2023-02-27T00:23:29.706Z,1.63
2023-02-27T00:27:11.745Z,1.70
2023-02-27T00:30:53.894Z,1.85
2023-02-27T00:34:35.951Z,2.00
2023-02-27T00:38:17.877Z,2.00
2023-02-27T00:41:59.946Z,1.75
2023-02-27T00:45:41.978Z,2.10
2023-02-27T00:49:25.471Z,1.77
2023-02-27T00:53:07.419Z,1.90
2023-02-27T00:56:49.442Z,1.90
2023-02-27T01:00:31.514Z,1.80
2023-02-27T01:04:13.652Z,1.80
2023-02-27T01:07:55.602Z,2.15
2023-02-27T01:11:37.761Z,2.00
2023-02-27T01:15:20.050Z,3.10
2023-02-27T01:19:02.117Z,2.42
2023-02-27T01:22:44.091Z,2.50
2023-02-27T01:26:26.243Z,2.42
2023-02-27T01:30:11.399Z,2.67
2023-02-27T01:33:53.385Z,2.08
2023-02-27T01:37:35.392Z,2.13
2023-02-27T01:41:17.573Z,2.05
2023-02-27T01:45:10.068Z,2.25
2023-02-27T01:48:59.088Z,2.35
2023-02-27T01:52:44.021Z,2.22
2023-02-27T01:56:29.256Z,2.70
2023-02-27T02:00:12.533Z,2.10
2023-02-27T02:04:10.247Z,2.28
2023-02-27T02:07:53.200Z,2.30
2023-02-27T02:11:35.305Z,1.88
2023-02-27T02:15:17.547Z,2.42
2023-02-27T02:19:36.308Z,2.17
2023-02-27T02:23:33.915Z,1.83
2023-02-27T02:27:22.552Z,1.70
2023-02-27T02:31:29.120Z,1.50
2023-02-27T02:35:23.296Z,1.70
2023-02-27T02:39:11.201Z,2.05
2023-02-27T02:42:59.610Z,1.73
2023-02-27T02:47:06.482Z,2.13
2023-02-27T02:51:05.780Z,2.28
2023-02-27T02:54:59.729Z,2.22
2023-02-27T02:59:08.772Z,1.83
2023-02-27T03:03:00.588Z,1.45
2023-02-27T03:06:50.365Z,2.00
2023-02-27T03:10:36.604Z,1.80
2023-02-27T03:14:27.043Z,1.67
2023-02-27T03:18:18.687Z,1.73
2023-02-27T03:22:15.336Z,2.47
2023-02-27T03:25:58.513Z,2.83
2023-02-27T03:29:46.304Z,2.20
2023-02-27T03:33:49.010Z,2.15
2023-02-27T03:37:41.478Z,1.60
2023-02-27T03:41:37.119Z,1.88
2023-02-27T03:45:19.053Z,1.70
2023-02-27T03:49:01.079Z,2.22
2023-02-27T03:52:43.389Z,1.98
2023-02-27T03:56:51.728Z,2.00
2023-02-27T04:00:34.861Z,2.05
2023-02-27T04:04:18.235Z,1.90
2023-02-27T04:08:26.971Z,2.60
2023-02-27T04:12:44.318Z,2.38
2023-02-27T04:16:37.553Z,1.98
2023-02-27T04:20:28.529Z,2.17
2023-02-27T04:24:32.436Z,1.92
2023-02-27T04:28:25.194Z,1.80
2023-02-27T04:32:20.157Z,2.05
2023-02-27T04:36:18.674Z,2.15
2023-02-27T04:40:05.624Z,2.28
2023-02-27T04:43:49.796Z,2.80
2023-02-27T04:47:38.744Z,2.50
2023-02-27T04:51:26.473Z,1.70
2023-02-27T04:55:13.534Z,2.50
2023-02-27T04:58:59.802Z,1.90
2023-02-27T05:02:47.293Z,2.30
2023-02-27T05:06:34.833Z,2.10
2023-02-27T05:10:29.081Z,1.92
2023-02-27T05:14:19.923Z,2.03
2023-02-27T05:18:10.857Z,1.88
2023-02-27T05:22:14.654Z,1.60
2023-02-27T05:26:04.472Z,1.90
2023-02-27T05:29:56.226Z,1.67
2023-02-27T05:34:04.456Z,1.90
2023-02-27T05:38:18.180Z,1.88
2023-02-27T05:42:14.089Z,1.98
2023-02-27T05:46:04.554Z,2.13
2023-02-27T05:50:11.675Z,2.03
2023-02-27T05:53:59.615Z,1.58
2023-02-27T05:57:59.593Z,2.45
2023-02-27T06:01:41.603Z,2.10
2023-02-27T06:05:25.681Z,2.00
2023-02-27T06:09:08.373Z,1.77
2023-02-27T06:12:50.445Z,1.77
2023-02-27T06:16:32.460Z,1.90
2023-02-27T06:20:14.469Z,1.73
2023-02-27T06:23:56.475Z,1.90
2023-02-27T06:27:38.463Z,2.30
2023-02-27T06:31:20.541Z,2.20
2023-02-27T06:35:02.651Z,1.80
2023-02-27T06:38:44.664Z,1.75
2023-02-27T06:42:27.092Z,1.65
2023-02-27T06:46:09.139Z,1.80
2023-02-27T06:49:51.147Z,2.00
2023-02-27T06:53:33.645Z,1.77
2023-02-27T06:57:15.750Z,1.70
2023-02-27T07:01:00.392Z,1.88
2023-02-27T07:04:42.576Z,2.08
2023-02-27T07:08:24.799Z,1.60
2023-02-27T07:12:08.079Z,1.95
2023-02-27T07:15:51.165Z,2.05
2023-02-27T07:19:35.932Z,1.90
2023-02-27T07:23:18.760Z,1.77
2023-02-27T07:27:00.983Z,1.83
2023-02-27T07:30:42.956Z,1.98
2023-02-27T07:34:24.904Z,1.85
2023-02-27T07:38:06.921Z,1.80
2023-02-27T07:41:48.888Z,1.70
2023-02-27T07:45:30.930Z,1.95
2023-02-27T07:49:13.305Z,1.90
2023-02-27T07:52:55.291Z,2.03
2023-02-27T07:56:37.322Z,1.73
2023-02-27T08:00:19.720Z,2.35
2023-02-27T08:04:01.777Z,2.13
2023-02-27T08:07:43.908Z,2.17
2023-02-27T08:11:26.241Z,2.00
2023-02-27T08:15:09.104Z,2.20
2023-02-27T08:18:51.094Z,2.10
2023-02-27T08:22:33.095Z,2.15
2023-02-27T08:26:15.468Z,3.00
2023-02-27T08:29:57.413Z,3.70
2023-02-27T08:33:40.203Z,2.90
2023-02-27T08:37:22.190Z,2.40
2023-02-27T08:41:04.749Z,2.22
2023-02-27T08:44:46.992Z,2.25
2023-02-27T08:48:29.106Z,2.35
2023-02-27T08:52:11.181Z,2.47
2023-02-27T08:55:53.540Z,2.78
2023-02-27T08:59:35.528Z,2.30
2023-02-27T09:03:17.551Z,2.55
2023-02-27T09:06:59.618Z,2.58
2023-02-27T09:10:41.958Z,2.72
2023-02-27T09:14:24.412Z,2.55
2023-02-27T09:18:07.132Z,2.22
2023-02-27T09:21:49.142Z,2.33
2023-02-27T09:25:31.502Z,2.50
2023-02-27T09:29:13.563Z,2.53
2023-02-27T09:32:55.586Z,2.70
2023-02-27T09:36:37.576Z,2.70
2023-02-27T09:40:31.940Z,2.58
2023-02-27T09:44:33.467Z,2.88
2023-02-27T09:48:30.602Z,2.90
2023-02-27T09:52:14.730Z,2.75
2023-02-27T09:56:05.493Z,2.85
2023-02-27T10:00:10.921Z,2.67
2023-02-27T10:04:36.279Z,2.88
2023-02-27T10:08:33.919Z,2.67
2023-02-27T10:12:37.249Z,2.80
2023-02-27T10:16:22.006Z,2.88
2023-02-27T10:20:10.791Z,3.25
2023-02-27T10:24:27.722Z,3.00
2023-02-27T10:28:14.468Z,2.85
2023-02-27T10:32:04.933Z,2.72
2023-02-27T10:35:47.037Z,2.95
2023-02-27T10:39:30.651Z,2.88
2023-02-27T10:43:19.314Z,3.05
2023-02-27T10:47:01.472Z,2.47
2023-02-27T10:50:45.773Z,2.70
2023-02-27T10:54:27.761Z,3.10
2023-02-27T10:58:19.715Z,2.13
2023-02-27T11:02:06.263Z,1.60
2023-02-27T11:06:01.829Z,1.40
2023-02-27T11:09:43.925Z,1.23
2023-02-27T11:13:31.439Z,1.27
2023-02-27T11:17:41.859Z,1.10
2023-02-27T11:21:30.129Z,1.30
2023-02-27T11:25:25.652Z,1.20
2023-02-27T11:29:12.984Z,1.20
2023-02-27T11:33:01.550Z,0.90
2023-02-27T11:36:46.935Z,0.93
2023-02-27T11:40:48.189Z,1.10
2023-02-27T11:44:38.860Z,0.70
2023-02-27T11:48:37.785Z,1.00
2023-02-27T11:52:38.273Z,0.80
2023-02-27T11:56:44.918Z,0.90
2023-02-27T12:01:15.360Z,0.70
2023-02-27T12:05:22.623Z,0.80
2023-02-27T12:09:18.808Z,0.88
2023-02-27T12:13:06.240Z,0.70
2023-02-27T12:16:56.991Z,0.77
2023-02-27T12:20:50.718Z,0.80
2023-02-27T12:24:41.327Z,0.95
2023-02-27T12:28:30.601Z,0.82
2023-02-27T12:32:23.378Z,0.95
2023-02-27T12:36:09.889Z,0.70
2023-02-27T12:39:55.065Z,0.60
2023-02-27T12:43:56.621Z,0.90
2023-02-27T12:47:41.714Z,0.80
2023-02-27T12:51:44.284Z,0.77
2023-02-27T12:55:37.963Z,0.73
2023-02-27T12:59:36.551Z,0.60
2023-02-27T13:03:30.348Z,0.80
2023-02-27T13:07:35.967Z,0.90
2023-02-27T13:11:51.849Z,1.00
2023-02-27T13:16:00.705Z,0.60
2023-02-27T13:19:53.202Z,0.60
2023-02-27T13:23:43.490Z,0.60
2023-02-27T13:27:36.041Z,0.57
2023-02-27T13:31:48.110Z,0.50
2023-02-27T13:35:39.313Z,0.75
2023-02-27T13:39:44.103Z,0.60
2023-02-27T13:43:51.488Z,0.70
2023-02-27T13:47:37.984Z,0.60
2023-02-27T13:51:35.328Z,0.68
2023-02-27T13:55:43.491Z,0.70
2023-02-27T13:59:25.421Z,0.80
2023-02-27T14:03:25.855Z,0.70
2023-02-27T14:07:14.150Z,0.68
2023-02-27T14:11:13.655Z,0.80
2023-02-27T14:14:56.447Z,0.60
2023-02-27T14:18:55.025Z,0.65
2023-02-27T14:22:39.762Z,0.70
2023-02-27T14:26:22.832Z,0.70
2023-02-27T14:30:10.125Z,0.70
2023-02-27T14:33:55.924Z,0.88
2023-02-27T14:37:38.678Z,0.80
2023-02-27T14:41:29.704Z,0.50
2023-02-27T14:45:20.743Z,0.55
2023-02-27T14:49:26.364Z,0.60
2023-02-27T14:53:22.979Z,0.60
2023-02-27T14:57:06.713Z,0.60
2023-02-27T15:00:58.856Z,0.50
2023-02-27T15:04:41.113Z,0.60
2023-02-27T15:08:28.185Z,0.57
2023-02-27T15:12:17.962Z,0.60
2023-02-27T15:16:31.942Z,0.60
2023-02-27T15:20:25.703Z,0.68
2023-02-27T15:24:21.132Z,0.50
2023-02-27T15:28:22.824Z,0.63
2023-02-27T15:32:06.596Z,0.50
2023-02-27T15:35:48.686Z,0.60
2023-02-27T15:39:33.904Z,0.50
2023-02-27T15:43:16.030Z,0.47
2023-02-27T15:46:58.800Z,0.50
2023-02-27T15:50:47.939Z,0.70
2023-02-27T15:54:34.377Z,0.43
2023-02-27T15:58:26.596Z,0.70
2023-02-27T16:02:46.130Z,0.63
2023-02-27T16:06:30.672Z,0.90
2023-02-27T16:10:22.570Z,0.73
2023-02-27T16:14:06.173Z,0.80
2023-02-27T16:18:07.945Z,0.90
2023-02-27T16:22:13.739Z,0.90
2023-02-27T16:26:07.051Z,0.80
2023-02-27T16:29:49.321Z,1.00
2023-02-27T16:33:36.721Z,0.90
2023-02-27T16:37:34.993Z,0.95
2023-02-27T16:41:19.424Z,0.75
2023-02-27T16:45:01.454Z,0.90
2023-02-27T16:48:43.419Z,0.70
2023-02-27T16:52:25.483Z,0.77
2023-02-27T16:56:10.904Z,0.77
2023-02-27T16:59:52.844Z,0.82
2023-02-27T17:03:35.309Z,0.70
2023-02-27T17:07:18.279Z,0.88
2023-02-27T17:11:00.294Z,0.90
2023-02-27T17:14:42.308Z,0.77
2023-02-27T17:18:24.386Z,0.80
2023-02-27T17:22:06.700Z,0.73
2023-02-27T17:25:48.750Z,0.90
2023-02-27T17:29:30.867Z,0.90
2023-02-27T17:33:12.892Z,0.82
2023-02-27T17:36:54.854Z,0.77
2023-02-27T17:40:39.413Z,0.90
2023-02-27T17:44:21.622Z,0.90
2023-02-27T17:48:03.660Z,1.00
2023-02-27T17:51:45.770Z,0.80
2023-02-27T17:55:27.775Z,0.90
2023-02-27T17:59:09.799Z,1.00
2023-02-27T18:02:51.858Z,0.82
2023-02-27T18:06:33.940Z,1.00
2023-02-27T18:10:15.988Z,1.05
2023-02-27T18:13:58.392Z,1.10
2023-02-27T18:17:40.407Z,1.30
2023-02-27T18:21:24.413Z,1.10
2023-02-27T18:25:07.280Z,1.20
2023-02-27T18:28:52.977Z,1.20
2023-02-27T18:32:35.051Z,1.20
2023-02-27T18:36:17.304Z,1.00
2023-02-27T18:39:59.240Z,0.90
2023-02-27T18:43:43.439Z,0.90
2023-02-27T18:47:25.615Z,0.98
2023-02-27T18:51:12.474Z,0.90
2023-02-27T18:58:37.178Z,1.02
2023-02-27T19:02:22.304Z,1.50
2023-02-27T19:06:04.375Z,1.30
2023-02-27T19:09:46.630Z,1.20
2023-02-27T19:13:28.634Z,0.90
2023-02-27T19:17:10.654Z,0.90
2023-02-27T19:20:52.644Z,1.20
2023-02-27T19:24:34.600Z,0.88
2023-02-27T19:28:16.665Z,0.90
2023-02-27T19:31:58.714Z,0.68
2023-02-27T19:35:43.428Z,1.10
2023-02-27T19:39:25.609Z,1.08
2023-02-27T19:43:07.716Z,0.90
2023-02-27T19:46:52.164Z,0.90
2023-02-27T19:50:34.673Z,0.80
2023-02-27T19:54:17.527Z,0.80
2023-02-27T19:57:59.569Z,0.70
2023-02-27T20:01:41.763Z,0.95
2023-02-27T20:05:24.882Z,0.63
2023-02-27T20:09:07.282Z,0.80
2023-02-27T20:12:49.229Z,0.90
2023-02-27T20:16:35.649Z,0.60
2023-02-27T20:20:17.856Z,0.73
2023-02-27T20:24:01.078Z,0.95
2023-02-27T20:27:43.145Z,1.10
2023-02-27T20:31:30.348Z,0.82
2023-02-27T20:35:12.706Z,1.00
2023-02-27T20:38:54.754Z,1.10
2023-02-27T20:42:36.746Z,1.10
2023-02-27T20:46:21.408Z,1.00
2023-02-27T20:50:03.390Z,1.00
2023-02-27T20:53:47.606Z,1.20
2023-02-27T20:57:29.611Z,1.08
2023-02-27T21:01:13.797Z,0.98
2023-02-27T21:04:57.616Z,1.00
2023-02-27T21:08:42.182Z,0.82
2023-02-27T21:12:24.228Z,1.00
2023-02-27T21:16:08.108Z,1.10
2023-02-27T21:19:50.209Z,1.13
2023-02-27T21:23:32.676Z,1.23
2023-02-27T21:27:16.561Z,1.17
2023-02-27T21:30:58.565Z,1.17
2023-02-27T21:34:40.590Z,1.00
2023-02-27T21:38:22.539Z,1.00
2023-02-27T21:42:05.145Z,1.10
2023-02-27T21:45:51.735Z,1.10
2023-02-27T21:49:33.816Z,1.08
2023-02-27T21:53:16.134Z,1.55
2023-02-27T21:57:01.890Z,1.30
2023-02-27T22:00:43.889Z,1.33
2023-02-27T22:04:25.957Z,1.30
2023-02-27T22:08:08.123Z,1.60
2023-02-27T22:11:50.188Z,1.70
2023-02-27T22:15:32.215Z,1.20
2023-02-27T22:19:20.035Z,1.25
2023-02-27T22:23:04.818Z,1.17
2023-02-27T22:26:49.727Z,1.17
2023-02-27T22:30:31.770Z,1.50
2023-02-27T22:34:19.479Z,1.40
2023-02-27T22:38:01.520Z,1.52
2023-02-27T22:41:43.756Z,1.83
2023-02-27T22:45:25.767Z,1.75
2023-02-27T22:49:12.728Z,1.90
2023-02-27T22:52:54.741Z,2.13
2023-02-27T22:56:37.444Z,1.73
2023-02-27T23:00:19.719Z,1.60
2023-02-27T23:04:05.077Z,1.45
2023-02-27T23:07:47.344Z,1.67
2023-02-27T23:11:29.763Z,1.50
2023-02-27T23:15:12.158Z,1.67
2023-02-27T23:18:56.918Z,1.70
2023-02-27T23:22:38.869Z,1.63
2023-02-27T23:26:20.861Z,1.85
2023-02-27T23:30:03.058Z,1.70
2023-02-27T23:33:45.767Z,1.73
2023-02-27T23:37:27.762Z,1.98
2023-02-27T23:41:10.339Z,2.10
2023-02-27T23:45:10.642Z,1.75
2023-02-27T23:48:52.651Z,1.80
2023-02-27T23:52:34.630Z,2.08
2023-02-27T23:56:16.866Z,2.60
2023-02-27T23:59:58.881Z,2.08
